Beaudry, Arkansas
Current Conditions -  °F | °C
As of 7:14 PM on Thursday 18 Dec 2014 (Local Time) from KHOT Reporting Station
Haze Haze  
Wind Chill: 38°   Ceiling: 400
Heat Index: 42°   Visibility: 6mi
Dew Point: 40°   Wind: 7mph
Humidity: 92%   Direction: 60°ENE
Pressure: 30.2"   Gusts: NA
Location:  34.7091°N, 93.2208°W
Report Text: KHOT 190114Z AUTO 06006KT 6SM BR OVC004 06/04 A3020 RMK AO2 T00560044
Loading
Personal Weather Stations






























Interactive Weather Map New forecast layout! Learn more

10-Day Weather Forecast

Advertisements
Track Severe Weather on mobile